Portada
METAR-TAF:

METAR-TAF

Aeroports :

Andahuaylas, Perú

latitud: 13-43S, longitud: 073-21W, altitud: 3444 m

Observació

L'informe es va fer fa 4 hores i 46 minuts, a les 19:00 UTC
Vent 9 kt del Nord-Oest
Temperatura 17°C
Humitat 52%
Pressió 1036 hPa
Visibilitat 10 km o més
Escasses núvols a una alçada de 1200 ft
Núvols disperses a una alçada de 6000 ft

METAR: SPHY 231900Z 31009KT 9999 FEW012 SCT060 17/07 Q1036 RMK BIRD HAZARD RWY 03/21 PP000

Hora: 18:46 (23:46 UTC)

Pronòstic

L'informe es va fer fa 6 hores i 46 minuts, a les 17:00 UTC
Pronòstic vàlid del 23 a les 18 UTC al 24 a les 18 UTC
Vent 6 kt del Nord/Nord-Oest
Visibilitat 10 km o més
Escasses núvols a una alçada de 1200 ft
Núvols disperses a una alçada de 6000 ft
Temporalment
l' 23 a les 18 UTC al 23 a les 22 UTC
Vent 14 kt del Nord/Nord-Est

TAF: SPHY 231700Z 2318/2418 33006KT 9999 FEW012 SCT060 TX18/2319Z TNM05/2411Z TEMPO 2318/2322 03014KT

Observacions i pronòstics meteorològics de més de 4000 aeroports (METAR i TAF).

Les estacions disponibles són els punts grocs i vermells al mapa.

Posi el ratolí al punt desitjat per veure el nom de l'estació.

Feu clic per veure les observacions i els pronòstics meteorològics.

Per canviar el mapa: feu clic els botons verds amb una creu de color negre per apropar; al botó verd amb un guió per allunyar la imatge; o en les fletxes verdes per a mapes adjacents.


METAR-TAF: